Time;durP1;ratioP1;P1;durP2;ratioP2;P2;SDS_P1;SDS_P2;PMS_P1;PMS_P2;Temp;Humidity;BMP_temperature;BMP_pressure;BME280_temperature;BME280_humidity;BME280_pressure;Samples;Min_cycle;Max_cycle;Signal;HPM_P1;HPM_P2
2022/03/04 00:01:00;;;;;;;0.30;0.20;;;-3.10;99.00;;;;;;5069110;28;20198;-89
2022/03/04 00:03:27;;;;;;;0.30;0.20;;;-3.10;99.10;;;;;;5068799;28;20251;-89
2022/03/04 00:05:54;;;;;;;1.67;1.58;;;-3.20;99.20;;;;;;5069433;28;20651;-89
2022/03/04 00:08:22;;;;;;;0.30;0.10;;;-3.20;99.30;;;;;;5063789;28;20210;-90
2022/03/04 00:10:49;;;;;;;0.30;0.20;;;-3.30;99.50;;;;;;5063058;28;20268;-90
2022/03/04 00:13:16;;;;;;;0.30;0.10;;;-3.30;99.70;;;;;;5064220;28;20205;-90
2022/03/04 00:15:43;;;;;;;0.30;0.20;;;-3.30;99.70;;;;;;5067172;28;20252;-89
2022/03/04 00:18:10;;;;;;;0.35;0.25;;;-3.20;99.50;;;;;;5062841;28;20201;-87
2022/03/04 00:20:37;;;;;;;0.30;0.10;;;-3.20;98.90;;;;;;5066813;28;20206;-89
2022/03/04 00:23:05;;;;;;;0.30;0.10;;;-3.20;99.00;;;;;;5072988;28;20224;-89
2022/03/04 00:25:33;;;;;;;0.30;0.10;;;-3.20;99.30;;;;;;5088880;28;20213;-90
2022/03/04 00:28:00;;;;;;;1.85;1.75;;;-3.30;99.50;;;;;;5093852;28;20232;-90
2022/03/04 00:30:28;;;;;;;0.30;0.20;;;-3.40;99.90;;;;;;5088216;28;20477;-90
2022/03/04 00:32:54;;;;;;;0.30;0.20;;;-3.40;99.90;;;;;;5073666;28;20202;-89
2022/03/04 00:35:21;;;;;;;0.77;0.77;;;-3.40;99.90;;;;;;5064264;28;20711;-89
2022/03/04 00:37:48;;;;;;;0.40;0.20;;;-3.40;99.90;;;;;;5068114;28;20205;-89
2022/03/04 00:40:15;;;;;;;0.30;0.17;;;-3.40;99.90;;;;;;5062639;28;20222;-89
2022/03/04 00:42:44;;;;;;;0.40;0.30;;;-3.50;99.90;;;;;;5060507;28;20726;-91
2022/03/04 00:45:11;;;;;;;0.75;0.75;;;-3.50;99.90;;;;;;5068938;28;20205;-90
2022/03/04 00:47:38;;;;;;;0.30;0.10;;;-3.60;99.90;;;;;;5067036;28;20258;-91
2022/03/04 00:50:07;;;;;;;0.38;0.20;;;-3.70;99.90;;;;;;5072856;28;20232;-90
2022/03/04 00:52:34;;;;;;;0.30;0.10;;;-3.70;99.90;;;;;;5078034;28;20209;-89
2022/03/04 00:55:01;;;;;;;1.05;1.05;;;-3.80;99.90;;;;;;5076230;28;20815;-91
2022/03/04 00:57:28;;;;;;;0.40;0.28;;;-3.80;99.90;;;;;;5058667;28;20206;-90
2022/03/04 00:59:56;;;;;;;0.30;0.10;;;-3.80;99.90;;;;;;5069429;28;20225;-90
2022/03/04 01:02:23;;;;;;;0.30;0.10;;;-3.70;99.90;;;;;;5062106;28;20252;-90
2022/03/04 01:04:50;;;;;;;0.30;0.10;;;-3.70;99.90;;;;;;5064909;28;20210;-89
2022/03/04 01:07:17;;;;;;;0.30;0.15;;;-3.70;99.90;;;;;;5055007;28;20665;-91
2022/03/04 01:09:44;;;;;;;0.30;0.20;;;-3.60;99.90;;;;;;5067702;28;20266;-89
2022/03/04 01:12:11;;;;;;;0.40;0.22;;;-3.60;99.90;;;;;;5067978;28;20278;-89
2022/03/04 01:14:38;;;;;;;0.30;0.20;;;-3.60;99.90;;;;;;5064947;28;20263;-89
2022/03/04 01:17:07;;;;;;;0.30;0.10;;;-3.50;99.90;;;;;;5066886;28;20237;-90
2022/03/04 01:19:34;;;;;;;0.30;0.10;;;-3.40;99.60;;;;;;5066354;28;20679;-90
2022/03/04 01:22:01;;;;;;;0.30;0.15;;;-3.40;99.10;;;;;;5066624;28;20210;-91
2022/03/04 01:24:28;;;;;;;2.60;0.95;;;-3.40;99.10;;;;;;5074097;28;20185;-90
2022/03/04 01:26:55;;;;;;;0.95;0.95;;;-3.40;99.00;;;;;;5065765;28;20606;-88
2022/03/04 01:29:22;;;;;;;0.30;0.10;;;-3.40;99.20;;;;;;5085641;28;20222;-92
2022/03/04 01:31:49;;;;;;;0.30;0.10;;;-3.30;99.10;;;;;;5072793;28;20197;-89
2022/03/04 01:34:17;;;;;;;0.30;0.20;;;-3.40;99.00;;;;;;5062977;28;20375;-89
2022/03/04 01:36:44;;;;;;;0.30;0.20;;;-3.40;99.00;;;;;;5063172;28;20836;-89
2022/03/04 01:39:11;;;;;;;0.65;0.65;;;-3.40;98.40;;;;;;5065547;28;20261;-89
2022/03/04 01:41:38;;;;;;;0.50;0.50;;;-3.40;98.20;;;;;;5063758;28;20247;-94
2022/03/04 01:44:06;;;;;;;0.52;0.50;;;-3.50;98.60;;;;;;5088770;28;20201;-88
2022/03/04 01:46:33;;;;;;;0.30;0.20;;;-3.70;99.30;;;;;;5084918;28;20216;-89
2022/03/04 01:49:00;;;;;;;0.30;0.10;;;-3.80;99.90;;;;;;5089040;28;20201;-89
2022/03/04 01:51:28;;;;;;;0.50;0.50;;;-3.90;99.90;;;;;;5069900;28;20216;-86
2022/03/04 01:53:55;;;;;;;1.63;1.52;;;-4.00;99.90;;;;;;5082358;28;20198;-89
2022/03/04 01:56:24;;;;;;;0.40;0.20;;;-4.00;99.90;;;;;;5084093;28;20206;-88
2022/03/04 01:58:51;;;;;;;0.30;0.10;;;-3.90;99.90;;;;;;5065906;28;20662;-89
2022/03/04 02:01:18;;;;;;;0.30;0.20;;;-4.00;99.90;;;;;;5064636;28;20197;-91
2022/03/04 02:03:46;;;;;;;0.30;0.20;;;-4.00;99.90;;;;;;5072711;28;20201;-89
2022/03/04 02:06:13;;;;;;;0.30;0.10;;;-4.00;99.90;;;;;;5067783;28;20762;-88
2022/03/04 02:08:41;;;;;;;0.30;0.10;;;-4.10;99.90;;;;;;5068711;28;20281;-89
2022/03/04 02:11:08;;;;;;;0.30;0.10;;;-4.10;99.90;;;;;;5070053;28;20207;-87
2022/03/04 02:13:37;;;;;;;0.30;0.20;;;-3.90;99.90;;;;;;5073535;28;20247;-88
2022/03/04 02:16:05;;;;;;;0.30;0.20;;;-3.90;99.90;;;;;;5072117;28;20308;-88
2022/03/04 02:18:32;;;;;;;0.40;0.20;;;-3.90;99.90;;;;;;5065450;28;20205;-89
2022/03/04 02:21:03;;;;;;;0.30;0.20;;;-3.90;99.90;;;;;;5080828;28;20237;-90
2022/03/04 02:23:31;;;;;;;0.30;0.10;;;-3.90;99.90;;;;;;5092688;28;20187;-87
2022/03/04 02:25:59;;;;;;;0.30;0.10;;;-3.80;99.90;;;;;;5091339;28;20283;-87
2022/03/04 02:28:26;;;;;;;0.30;0.10;;;-3.90;99.90;;;;;;5085331;28;20205;-88
2022/03/04 02:30:53;;;;;;;0.30;0.10;;;-3.90;99.90;;;;;;5086345;28;20214;-88
2022/03/04 02:33:20;;;;;;;0.30;0.20;;;-4.00;99.90;;;;;;5088572;28;20206;-87
2022/03/04 02:35:48;;;;;;;0.30;0.10;;;-3.90;99.90;;;;;;5086860;28;20217;-85
2022/03/04 02:38:15;;;;;;;0.40;0.30;;;-3.90;99.90;;;;;;5084586;28;20198;-87
2022/03/04 02:40:43;;;;;;;0.30;0.10;;;-3.90;99.90;;;;;;5083275;28;20225;-86
2022/03/04 02:43:10;;;;;;;0.30;0.10;;;-4.00;99.90;;;;;;5093300;28;20185;-89
2022/03/04 02:45:37;;;;;;;0.52;0.52;;;-4.00;99.90;;;;;;5093778;28;20189;-88
2022/03/04 02:48:04;;;;;;;0.30;0.10;;;-4.10;99.90;;;;;;5094635;28;20198;-88
2022/03/04 02:50:31;;;;;;;0.30;0.10;;;-3.90;99.90;;;;;;5076519;28;20236;-87
2022/03/04 02:52:58;;;;;;;0.30;0.10;;;-3.90;99.90;;;;;;5081048;28;20664;-86
2022/03/04 02:55:25;;;;;;;0.30;0.20;;;-4.00;99.90;;;;;;5075761;28;20224;-88
2022/03/04 02:57:54;;;;;;;0.40;0.40;;;-4.10;99.90;;;;;;5067851;28;20602;-91
2022/03/04 03:00:21;;;;;;;0.30;0.15;;;-4.20;99.90;;;;;;5070055;28;20282;-88
2022/03/04 03:02:48;;;;;;;0.30;0.10;;;-4.10;99.90;;;;;;5066762;28;20205;-87
2022/03/04 03:05:15;;;;;;;0.57;0.57;;;-4.20;99.90;;;;;;5068320;28;20206;-90
2022/03/04 03:07:42;;;;;;;0.30;0.10;;;-4.20;99.90;;;;;;5066894;28;20205;-87
2022/03/04 03:10:11;;;;;;;0.30;0.10;;;-4.20;99.90;;;;;;5068682;28;20202;-89
2022/03/04 03:12:38;;;;;;;0.30;0.10;;;-4.20;99.90;;;;;;5067165;28;20209;-88
2022/03/04 03:15:09;;;;;;;0.30;0.20;;;-4.30;99.90;;;;;;5063386;28;20247;-87
2022/03/04 03:17:36;;;;;;;0.30;0.10;;;-4.40;99.90;;;;;;5066228;28;20637;-88
2022/03/04 03:20:04;;;;;;;0.30;0.20;;;-4.40;99.90;;;;;;5070542;28;20233;-88
2022/03/04 03:22:31;;;;;;;0.30;0.10;;;-4.40;99.90;;;;;;5066258;28;20792;-89
2022/03/04 03:24:58;;;;;;;0.30;0.10;;;-4.40;99.90;;;;;;5069865;28;20310;-86
2022/03/04 03:27:25;;;;;;;0.40;0.40;;;-4.40;99.90;;;;;;5074742;28;20717;-87
2022/03/04 03:29:52;;;;;;;0.30;0.10;;;-4.40;99.90;;;;;;5073036;28;20213;-88
2022/03/04 03:32:20;;;;;;;0.30;0.15;;;-4.40;99.90;;;;;;5067325;28;20201;-88
2022/03/04 03:34:47;;;;;;;0.30;0.20;;;-4.40;99.90;;;;;;5066792;28;20202;-86
2022/03/04 03:37:14;;;;;;;0.30;0.10;;;-4.30;99.90;;;;;;5068247;28;20206;-88
2022/03/04 03:39:41;;;;;;;0.30;0.10;;;-4.30;99.90;;;;;;5069376;28;20624;-88
2022/03/04 03:42:08;;;;;;;1.30;1.30;;;-4.30;99.90;;;;;;5067063;28;20201;-89
2022/03/04 03:44:36;;;;;;;0.30;0.10;;;-4.30;99.90;;;;;;5064098;28;20262;-91
2022/03/04 03:47:03;;;;;;;0.30;0.10;;;-4.30;99.90;;;;;;5069744;28;20213;-90
2022/03/04 03:49:31;;;;;;;0.30;0.10;;;-4.40;99.90;;;;;;5067621;28;20256;-89
2022/03/04 03:51:58;;;;;;;0.30;0.20;;;-4.40;99.90;;;;;;5068850;28;20535;-88
2022/03/04 03:54:25;;;;;;;0.30;0.20;;;-4.40;99.90;;;;;;5063398;28;20206;-88
2022/03/04 03:56:52;;;;;;;0.30;0.10;;;-4.30;99.90;;;;;;5069836;28;20207;-89
2022/03/04 03:59:19;;;;;;;0.35;0.25;;;-4.20;99.90;;;;;;5070918;28;20616;-89
2022/03/04 04:01:46;;;;;;;0.30;0.20;;;-4.30;99.90;;;;;;5066991;28;20194;-87
2022/03/04 04:04:13;;;;;;;0.30;0.10;;;-4.40;99.90;;;;;;5066943;28;20254;-89
2022/03/04 04:06:43;;;;;;;0.30;0.10;;;-4.40;99.90;;;;;;5067744;28;20293;-89
2022/03/04 04:09:10;;;;;;;0.30;0.10;;;-4.40;99.90;;;;;;5071385;28;20198;-88
2022/03/04 04:11:39;;;;;;;0.30;0.10;;;-4.40;99.90;;;;;;5067160;28;20204;-88
2022/03/04 04:14:07;;;;;;;0.30;0.10;;;-4.60;99.90;;;;;;5067816;28;20262;-89
2022/03/04 04:16:35;;;;;;;0.30;0.10;;;-4.60;99.90;;;;;;5069328;28;20625;-88
2022/03/04 04:19:02;;;;;;;0.30;0.10;;;-4.60;99.90;;;;;;5068216;28;20258;-92
2022/03/04 04:21:29;;;;;;;0.30;0.10;;;-4.60;99.90;;;;;;5064944;28;20566;-89
2022/03/04 04:23:58;;;;;;;0.30;0.10;;;-4.60;99.90;;;;;;5083821;28;20227;-88
2022/03/04 04:26:26;;;;;;;0.30;0.10;;;-4.60;99.90;;;;;;5075494;28;20228;-88
2022/03/04 04:28:53;;;;;;;0.30;0.10;;;-4.60;99.90;;;;;;5068741;28;20202;-88
2022/03/04 04:31:20;;;;;;;0.40;0.32;;;-4.50;99.90;;;;;;5066287;28;20206;-89
2022/03/04 04:33:47;;;;;;;0.30;0.10;;;-4.60;99.90;;;;;;5067899;28;20700;-89
2022/03/04 04:36:14;;;;;;;0.30;0.10;;;-4.60;99.90;;;;;;5062903;28;20198;-87
2022/03/04 04:38:41;;;;;;;0.30;0.10;;;-4.70;99.90;;;;;;5070715;28;20250;-91
2022/03/04 04:41:10;;;;;;;1.88;0.47;;;-4.60;99.90;;;;;;5067028;28;20274;-90
2022/03/04 04:43:37;;;;;;;0.30;0.10;;;-4.60;99.90;;;;;;5067212;28;20247;-86
2022/03/04 04:46:05;;;;;;;0.30;0.10;;;-4.70;99.90;;;;;;5068685;28;20210;-88
2022/03/04 04:48:33;;;;;;;0.30;0.10;;;-4.70;99.90;;;;;;5069739;28;20198;-89
2022/03/04 04:51:00;;;;;;;0.30;0.10;;;-4.70;99.90;;;;;;5069413;28;20206;-88
2022/03/04 04:53:27;;;;;;;0.30;0.10;;;-4.70;99.90;;;;;;5066258;28;20212;-87
2022/03/04 04:55:54;;;;;;;0.30;0.10;;;-4.70;99.90;;;;;;5064119;28;20247;-87
2022/03/04 04:58:23;;;;;;;0.30;0.10;;;-4.70;99.90;;;;;;5058654;28;20766;-89
2022/03/04 05:00:53;;;;;;;0.30;0.10;;;-4.70;99.90;;;;;;5057600;28;20229;-88
2022/03/04 05:03:21;;;;;;;0.30;0.20;;;-4.80;99.90;;;;;;5061537;28;20787;-88
2022/03/04 05:05:48;;;;;;;0.30;0.10;;;-4.80;99.90;;;;;;5066291;28;20649;-88
2022/03/04 05:08:15;;;;;;;0.30;0.10;;;-4.80;99.90;;;;;;5063359;28;20206;-88
2022/03/04 05:10:43;;;;;;;0.30;0.10;;;-4.80;99.90;;;;;;5063491;28;20202;-88
2022/03/04 05:13:11;;;;;;;0.30;0.10;;;-4.90;99.90;;;;;;5064790;28;20206;-88
2022/03/04 05:15:41;;;;;;;0.50;0.50;;;-4.90;99.90;;;;;;5066970;28;20280;-90
2022/03/04 05:18:08;;;;;;;0.30;0.10;;;-4.90;99.90;;;;;;5064339;28;20622;-88
2022/03/04 05:20:36;;;;;;;0.95;0.50;;;-4.90;99.90;;;;;;5066862;28;20851;-88
2022/03/04 05:23:04;;;;;;;0.30;0.10;;;-4.90;99.90;;;;;;5086553;28;20253;-89
2022/03/04 05:25:31;;;;;;;0.30;0.10;;;-4.90;99.90;;;;;;5071006;28;20248;-88
2022/03/04 05:27:58;;;;;;;0.30;0.10;;;-4.90;99.90;;;;;;5066414;28;20631;-88
2022/03/04 05:30:25;;;;;;;0.30;0.20;;;-4.80;99.90;;;;;;5069223;28;20201;-88
2022/03/04 05:32:53;;;;;;;0.30;0.10;;;-4.80;99.90;;;;;;5068096;28;20247;-87
2022/03/04 05:35:20;;;;;;;0.30;0.10;;;-4.90;99.90;;;;;;5066287;28;20255;-89
2022/03/04 05:37:47;;;;;;;0.30;0.10;;;-4.80;99.90;;;;;;5069358;28;20213;-88
2022/03/04 05:40:14;;;;;;;1.20;0.68;;;-4.80;99.90;;;;;;5069205;28;20271;-90
2022/03/04 05:42:41;;;;;;;0.30;0.10;;;-4.80;99.90;;;;;;5066124;28;20254;-88
2022/03/04 05:45:09;;;;;;;0.40;0.38;;;-4.80;99.90;;;;;;5066637;28;20205;-89
2022/03/04 05:47:36;;;;;;;0.30;0.10;;;-4.80;99.90;;;;;;5070631;28;20202;-89
2022/03/04 05:50:05;;;;;;;0.30;0.10;;;-4.80;99.90;;;;;;5078083;28;20696;-87
2022/03/04 05:52:32;;;;;;;0.30;0.10;;;-4.70;99.90;;;;;;5089208;28;20266;-88
2022/03/04 05:55:00;;;;;;;0.30;0.20;;;-4.70;99.90;;;;;;5073997;28;20205;-88
2022/03/04 05:57:27;;;;;;;0.30;0.10;;;-4.70;99.90;;;;;;5073844;28;20182;-86
2022/03/04 05:59:53;;;;;;;0.30;0.10;;;-4.60;99.90;;;;;;5087872;28;20803;-88
2022/03/04 06:02:20;;;;;;;0.30;0.10;;;-4.60;99.90;;;;;;5098144;28;20329;-88
2022/03/04 06:04:47;;;;;;;0.30;0.20;;;-4.50;99.90;;;;;;5078012;28;20189;-87
2022/03/04 06:07:16;;;;;;;0.30;0.10;;;-4.60;99.90;;;;;;5066173;28;20205;-88
2022/03/04 06:09:43;;;;;;;0.30;0.10;;;-4.50;99.90;;;;;;5053282;28;20840;-89
2022/03/04 06:12:10;;;;;;;0.30;0.10;;;-4.50;99.90;;;;;;5050331;28;20210;-88
2022/03/04 06:14:37;;;;;;;0.30;0.10;;;-4.50;99.90;;;;;;5066559;28;20205;-87
2022/03/04 06:17:05;;;;;;;0.30;0.10;;;-4.40;99.90;;;;;;5053824;28;20754;-86
2022/03/04 06:19:32;;;;;;;0.30;0.10;;;-4.40;99.90;;;;;;5064299;28;20194;-86
2022/03/04 06:21:59;;;;;;;0.30;0.10;;;-4.30;99.90;;;;;;5091007;28;20259;-87
2022/03/04 06:24:27;;;;;;;0.30;0.10;;;-4.20;99.90;;;;;;5085056;28;20204;-86
2022/03/04 06:26:54;;;;;;;0.30;0.10;;;-4.00;99.90;;;;;;5073212;28;20396;-88
2022/03/04 06:29:21;;;;;;;0.30;0.10;;;-4.00;99.90;;;;;;5050068;28;20538;-89
2022/03/04 06:31:48;;;;;;;1.48;1.48;;;-3.90;99.90;;;;;;5049539;28;20731;-86
2022/03/04 06:34:15;;;;;;;0.30;0.20;;;-3.80;99.90;;;;;;5057379;28;20226;-86
2022/03/04 06:36:42;;;;;;;0.30;0.20;;;-3.70;99.90;;;;;;5062823;28;20248;-86
2022/03/04 06:39:09;;;;;;;1.20;1.10;;;-3.70;99.90;;;;;;5062296;28;20214;-87
2022/03/04 06:41:38;;;;;;;0.30;0.22;;;-3.60;99.90;;;;;;5057334;28;20276;-86
2022/03/04 06:44:05;;;;;;;1.42;1.33;;;-3.40;99.90;;;;;;5052916;28;20724;-88
2022/03/04 06:46:32;;;;;;;0.30;0.10;;;-3.30;99.90;;;;;;5058039;28;20247;-87
2022/03/04 06:48:59;;;;;;;0.30;0.10;;;-3.20;99.90;;;;;;5071921;28;20194;-87
2022/03/04 06:51:26;;;;;;;0.30;0.10;;;-3.10;99.90;;;;;;5071351;28;20209;-87
2022/03/04 06:53:53;;;;;;;0.40;0.20;;;-3.10;99.90;;;;;;5070214;28;20569;-87
2022/03/04 06:56:20;;;;;;;0.95;0.60;;;-3.10;99.90;;;;;;5051059;28;20210;-87
2022/03/04 06:58:49;;;;;;;0.30;0.10;;;-3.10;99.90;;;;;;5062683;28;20272;-88
2022/03/04 07:01:16;;;;;;;0.30;0.10;;;-3.00;99.90;;;;;;5070134;28;20267;-90
2022/03/04 07:03:43;;;;;;;2.05;2.05;;;-2.80;99.90;;;;;;5071972;28;20255;-86
2022/03/04 07:06:10;;;;;;;0.30;0.10;;;-2.80;99.90;;;;;;5058291;28;20248;-87
2022/03/04 07:08:37;;;;;;;0.30;0.10;;;-2.70;99.90;;;;;;5056354;28;20255;-89
2022/03/04 07:11:05;;;;;;;0.30;0.10;;;-2.50;99.90;;;;;;5069654;28;20215;-87
2022/03/04 07:13:32;;;;;;;0.60;0.38;;;-2.50;99.90;;;;;;5061659;28;20393;-92
2022/03/04 07:16:01;;;;;;;0.30;0.10;;;-2.50;99.90;;;;;;5065474;28;20283;-84
2022/03/04 07:18:29;;;;;;;0.40;0.30;;;-2.50;99.90;;;;;;5082999;28;20205;-92
2022/03/04 07:20:57;;;;;;;0.30;0.10;;;-2.40;99.90;;;;;;5083136;28;20923;-84
2022/03/04 07:23:24;;;;;;;0.30;0.10;;;-2.40;99.90;;;;;;5052914;28;20234;-86
2022/03/04 07:25:51;;;;;;;0.85;0.85;;;-2.50;99.90;;;;;;5051554;28;20258;-84
2022/03/04 07:28:18;;;;;;;0.77;0.40;;;-2.50;99.90;;;;;;5062819;28;20194;-84
2022/03/04 07:30:45;;;;;;;0.30;0.20;;;-2.30;99.90;;;;;;5051239;28;20206;-84
2022/03/04 07:33:14;;;;;;;0.30;0.10;;;-2.00;99.90;;;;;;5051225;28;20725;-87
2022/03/04 07:35:44;;;;;;;0.30;0.10;;;-1.70;99.90;;;;;;5051657;28;20269;-85
2022/03/04 07:38:12;;;;;;;0.40;0.20;;;-1.60;99.90;;;;;;5051484;28;20194;-84
2022/03/04 07:40:39;;;;;;;0.30;0.10;;;-1.50;99.90;;;;;;5051403;28;20259;-84
2022/03/04 07:43:06;;;;;;;0.30;0.10;;;-1.20;99.90;;;;;;5062854;28;20199;-84
2022/03/04 07:45:34;;;;;;;0.30;0.10;;;-1.00;99.90;;;;;;5070607;28;20943;-87
2022/03/04 07:48:01;;;;;;;0.50;0.50;;;-0.90;99.90;;;;;;5070658;28;20231;-88
2022/03/04 07:50:30;;;;;;;1.77;0.77;;;-0.70;99.90;;;;;;5052424;28;20260;-88
2022/03/04 07:52:57;;;;;;;0.82;0.82;;;-0.60;99.90;;;;;;5070142;28;20263;-87
2022/03/04 07:55:26;;;;;;;0.30;0.10;;;-0.50;99.90;;;;;;5071770;28;20206;-86
2022/03/04 07:57:54;;;;;;;0.30;0.20;;;-0.40;99.90;;;;;;5059533;28;20206;-88
2022/03/04 08:00:24;;;;;;;0.40;0.30;;;-0.40;99.90;;;;;;5050908;28;20236;-89
2022/03/04 08:02:52;;;;;;;0.30;0.10;;;-0.30;99.90;;;;;;5068859;28;20248;-88
2022/03/04 08:05:20;;;;;;;0.30;0.20;;;-0.20;99.70;;;;;;5069544;28;20284;-88
2022/03/04 08:07:48;;;;;;;0.30;0.20;;;-0.10;97.20;;;;;;5071075;28;20256;-88
2022/03/04 08:10:15;;;;;;;0.30;0.10;;;0.00;95.50;;;;;;5070539;28;20201;-88
2022/03/04 08:12:43;;;;;;;0.30;0.10;;;0.20;95.50;;;;;;5065062;28;20203;-89
2022/03/04 08:15:11;;;;;;;3.13;2.28;;;0.30;94.50;;;;;;5057076;28;20207;-88
2022/03/04 08:17:39;;;;;;;0.30;0.20;;;0.40;94.50;;;;;;5076135;28;20248;-88
2022/03/04 08:20:07;;;;;;;0.52;0.50;;;0.40;94.50;;;;;;5074289;28;20199;-89
2022/03/04 08:22:34;;;;;;;0.30;0.17;;;0.50;94.40;;;;;;5059995;28;20722;-88
2022/03/04 08:25:03;;;;;;;0.30;0.17;;;0.60;94.70;;;;;;5069714;28;20207;-89
2022/03/04 08:27:30;;;;;;;0.30;0.15;;;0.60;94.90;;;;;;5070758;28;20203;-88
2022/03/04 08:29:57;;;;;;;0.30;0.10;;;0.70;94.70;;;;;;5069381;28;20650;-88
2022/03/04 08:32:24;;;;;;;0.30;0.17;;;0.60;94.70;;;;;;5070104;28;20214;-89
2022/03/04 08:34:51;;;;;;;0.30;0.10;;;0.80;94.90;;;;;;5069916;28;20193;-88
2022/03/04 08:37:18;;;;;;;0.30;0.10;;;0.80;94.60;;;;;;5053512;28;20630;-88
2022/03/04 08:39:45;;;;;;;0.50;0.50;;;0.90;94.60;;;;;;5056105;28;20197;-88
2022/03/04 08:42:13;;;;;;;0.30;0.20;;;0.90;94.50;;;;;;5069593;28;20285;-87
2022/03/04 08:44:42;;;;;;;0.30;0.10;;;1.00;94.60;;;;;;5069222;28;20196;-88
2022/03/04 08:47:09;;;;;;;0.30;0.10;;;1.20;94.90;;;;;;5069852;28;20203;-88
2022/03/04 08:49:36;;;;;;;1.50;0.82;;;1.20;94.30;;;;;;5069761;28;20203;-88
2022/03/04 08:52:04;;;;;;;0.40;0.30;;;1.40;94.70;;;;;;5068855;28;20200;-88
2022/03/04 08:54:31;;;;;;;0.30;0.10;;;1.40;94.30;;;;;;5067791;28;20204;-89
2022/03/04 08:56:58;;;;;;;3.15;0.95;;;1.30;94.50;;;;;;5069935;28;20212;-89
2022/03/04 08:59:26;;;;;;;0.32;0.20;;;1.50;94.50;;;;;;5067829;28;20276;-89
2022/03/04 09:01:53;;;;;;;0.40;0.28;;;1.50;94.40;;;;;;5063875;28;20615;-88
2022/03/04 09:04:20;;;;;;;0.30;0.20;;;1.60;94.10;;;;;;5066095;28;20609;-88
2022/03/04 09:06:47;;;;;;;0.38;0.20;;;1.70;93.80;;;;;;5069634;28;20201;-87
2022/03/04 09:09:15;;;;;;;3.60;0.77;;;1.60;92.10;;;;;;5070159;28;20251;-87
2022/03/04 09:11:42;;;;;;;0.47;0.47;;;1.80;92.80;;;;;;5066038;28;20296;-88
2022/03/04 09:14:10;;;;;;;0.82;0.47;;;1.60;92.30;;;;;;5069274;28;20784;-87
2022/03/04 09:16:38;;;;;;;0.40;0.40;;;1.70;93.30;;;;;;5079491;28;20227;-88
2022/03/04 09:19:05;;;;;;;0.50;0.50;;;1.80;93.20;;;;;;5070093;28;20292;-88
2022/03/04 09:21:32;;;;;;;0.30;0.20;;;1.90;92.80;;;;;;5051527;28;20552;-87
2022/03/04 09:23:59;;;;;;;0.30;0.10;;;2.10;93.80;;;;;;5066068;28;20455;-88
2022/03/04 09:26:27;;;;;;;0.73;0.73;;;2.10;92.60;;;;;;5055201;28;20994;-90
2022/03/04 09:28:54;;;;;;;0.80;0.60;;;2.10;92.50;;;;;;5054311;28;20475;-87
2022/03/04 09:31:21;;;;;;;1.20;1.20;;;2.20;92.20;;;;;;5069098;28;20949;-89
2022/03/04 09:33:50;;;;;;;0.30;0.20;;;2.10;92.40;;;;;;5068534;28;20472;-88
2022/03/04 09:36:17;;;;;;;0.95;0.95;;;2.20;92.20;;;;;;5069112;28;20274;-87
2022/03/04 09:38:44;;;;;;;0.30;0.10;;;2.40;92.10;;;;;;5056522;28;20206;-88
2022/03/04 09:41:11;;;;;;;0.40;0.30;;;2.40;91.80;;;;;;5049519;28;20457;-86
2022/03/04 09:43:39;;;;;;;0.60;0.50;;;2.40;91.30;;;;;;5061503;28;20532;-88
2022/03/04 09:46:07;;;;;;;0.30;0.10;;;2.30;90.70;;;;;;5069335;28;20461;-87
2022/03/04 09:48:39;;;;;;;0.30;0.17;;;2.20;90.30;;;;;;5050019;28;20205;-86
2022/03/04 09:51:08;;;;;;;0.30;0.17;;;2.20;91.00;;;;;;5053403;28;20460;-86
2022/03/04 09:53:36;;;;;;;0.30;0.10;;;2.30;90.30;;;;;;5071263;28;20463;-86
2022/03/04 09:56:04;;;;;;;0.30;0.10;;;2.50;90.30;;;;;;5070021;28;20450;-88
2022/03/04 09:58:31;;;;;;;0.30;0.10;;;2.80;90.30;;;;;;5061172;28;20476;-86
2022/03/04 10:00:58;;;;;;;5.97;0.57;;;3.00;89.40;;;;;;5049669;28;20461;-86
2022/03/04 10:03:44;;;;;;;4.63;0.57;;;3.20;89.00;;;;;;5067446;28;20487;-86
2022/03/04 10:06:13;;;;;;;0.50;0.40;;;3.40;86.50;;;;;;5068903;28;20456;-85
2022/03/04 10:08:42;;;;;;;0.30;0.20;;;3.20;84.70;;;;;;5069602;28;20451;-87
2022/03/04 10:11:09;;;;;;;0.47;0.47;;;2.80;85.00;;;;;;5069225;28;20459;-86
2022/03/04 10:13:48;;;;;;;0.40;0.30;;;2.70;83.70;;;;;;5074684;28;20539;-85
2022/03/04 10:16:23;;;;;;;0.40;0.30;;;2.60;83.30;;;;;;5069297;28;20597;-85
2022/03/04 10:19:05;;;;;;;0.40;0.23;;;2.50;83.60;;;;;;5073304;28;20486;-88
2022/03/04 10:21:50;;;;;;;0.30;0.10;;;2.50;85.20;;;;;;5072430;28;20478;-87
2022/03/04 10:24:18;;;;;;;0.30;0.10;;;2.60;85.20;;;;;;5058243;28;20939;-84
2022/03/04 10:26:45;;;;;;;0.30;0.20;;;2.50;85.30;;;;;;5065551;28;20454;-85
2022/03/04 10:29:23;;;;;;;0.40;0.40;;;2.50;86.10;;;;;;5071288;28;20876;-86
2022/03/04 10:32:08;;;;;;;1.02;0.68;;;2.50;85.20;;;;;;5066334;28;20217;-85
2022/03/04 10:34:44;;;;;;;0.40;0.30;;;2.60;86.90;;;;;;5072733;28;20282;-88
2022/03/04 10:37:14;;;;;;;0.47;0.47;;;2.70;88.10;;;;;;5072432;28;20501;-84
2022/03/04 10:39:58;;;;;;;1.77;0.40;;;2.60;89.00;;;;;;5072525;28;20447;-85
2022/03/04 10:42:51;;;;;;;0.37;0.23;;;2.90;86.60;;;;;;5057268;28;20507;-85
2022/03/04 10:45:24;;;;;;;0.30;0.10;;;2.90;86.40;;;;;;5071011;28;20502;-85
2022/03/04 10:47:53;;;;;;;0.40;0.40;;;3.10;85.00;;;;;;5072173;28;20477;-85
2022/03/04 10:50:29;;;;;;;0.30;0.10;;;3.00;85.80;;;;;;5065462;28;20463;-85
2022/03/04 10:53:00;;;;;;;0.30;0.13;;;3.00;85.60;;;;;;5051752;28;20565;-84
2022/03/04 10:55:33;;;;;;;5.83;0.97;;;2.80;84.70;;;;;;5051352;28;20468;-86
2022/03/04 10:58:02;;;;;;;0.30;0.20;;;2.90;84.40;;;;;;5071474;28;20581;-86
2022/03/04 11:00:31;;;;;;;0.53;0.30;;;3.00;84.20;;;;;;5067759;28;20491;-86
2022/03/04 11:02:58;;;;;;;1.40;1.30;;;3.10;82.80;;;;;;5064248;28;20518;-85
2022/03/04 11:05:25;;;;;;;0.30;0.20;;;3.10;83.80;;;;;;5067406;28;20517;-86
2022/03/04 11:07:53;;;;;;;0.30;0.20;;;3.40;85.10;;;;;;5069328;28;20497;-87
2022/03/04 11:10:21;;;;;;;1.30;1.00;;;3.60;84.20;;;;;;5079027;28;20478;-86
2022/03/04 11:12:54;;;;;;;0.30;0.10;;;3.40;83.60;;;;;;5074784;28;20909;-85
2022/03/04 11:15:22;;;;;;;0.70;0.70;;;3.40;86.60;;;;;;5063130;28;20504;-86
2022/03/04 11:17:51;;;;;;;6.53;1.90;;;3.70;84.90;;;;;;5067432;28;20464;-86
2022/03/04 11:20:19;;;;;;;0.40;0.30;;;3.60;84.10;;;;;;5051317;28;20502;-85
2022/03/04 11:22:51;;;;;;;0.30;0.10;;;3.90;84.40;;;;;;5067533;28;21021;-85
2022/03/04 11:25:18;;;;;;;1.33;1.00;;;4.20;82.20;;;;;;5070578;28;21002;-85
2022/03/04 11:27:48;;;;;;;0.87;0.87;;;4.00;81.00;;;;;;5069809;28;20911;-85
2022/03/04 11:30:38;;;;;;;0.30;0.20;;;4.00;82.00;;;;;;5071130;28;20505;-87
2022/03/04 11:33:15;;;;;;;0.40;0.30;;;3.80;80.40;;;;;;5051767;28;20484;-86
2022/03/04 11:36:00;;;;;;;1.00;0.67;;;3.90;80.90;;;;;;5069643;28;20501;-86
2022/03/04 11:39:07;;;;;;;0.30;0.20;;;3.70;81.20;;;;;;5071239;28;20945;-85
2022/03/04 11:41:38;;;;;;;0.30;0.10;;;4.10;82.90;;;;;;5056229;28;20471;-86
2022/03/04 11:44:15;;;;;;;0.40;0.20;;;4.20;77.90;;;;;;5054952;28;20483;-86
2022/03/04 11:46:45;;;;;;;0.90;0.90;;;4.10;77.70;;;;;;5068657;28;20440;-86
2022/03/04 11:49:44;;;;;;;0.30;0.13;;;4.10;77.10;;;;;;5056359;28;20454;-86
2022/03/04 11:52:44;;;;;;;1.80;1.70;;;3.90;76.50;;;;;;5037007;28;20520;-86
2022/03/04 11:55:23;;;;;;;0.30;0.20;;;4.20;77.80;;;;;;5037165;28;20862;-86
2022/03/04 11:58:02;;;;;;;0.70;0.57;;;4.30;77.70;;;;;;5065972;28;20490;-87
2022/03/04 12:00:40;;;;;;;2.87;0.60;;;4.80;78.50;;;;;;5062737;28;20452;-86
2022/03/04 12:03:18;;;;;;;0.30;0.13;;;4.60;76.90;;;;;;5062570;28;20483;-88
2022/03/04 12:05:50;;;;;;;0.30;0.20;;;4.10;75.90;;;;;;5068029;28;20881;-88
2022/03/04 12:08:17;;;;;;;0.40;0.40;;;4.20;76.80;;;;;;5071048;28;20443;-87
2022/03/04 12:10:53;;;;;;;0.40;0.33;;;4.10;77.40;;;;;;5065409;28;20544;-88
2022/03/04 12:13:27;;;;;;;0.40;0.30;;;4.30;78.50;;;;;;5062769;28;20852;-88
2022/03/04 12:16:03;;;;;;;0.40;0.30;;;4.80;77.80;;;;;;5063918;28;20974;-87
2022/03/04 12:18:47;;;;;;;0.40;0.20;;;5.20;76.30;;;;;;5070389;28;20451;-86
2022/03/04 12:21:26;;;;;;;0.53;0.53;;;5.20;75.00;;;;;;5048782;28;20472;-88
2022/03/04 12:24:01;;;;;;;1.30;1.30;;;4.90;74.10;;;;;;5069530;28;21004;-86
2022/03/04 12:26:36;;;;;;;0.77;0.67;;;5.10;72.30;;;;;;5059053;28;20461;-86
2022/03/04 12:29:05;;;;;;;0.60;0.37;;;5.20;74.60;;;;;;5067161;28;20564;-86
2022/03/04 12:31:39;;;;;;;0.30;0.20;;;4.90;72.90;;;;;;5069405;28;20497;-88
2022/03/04 12:34:07;;;;;;;0.80;0.23;;;4.60;72.60;;;;;;5068469;28;20451;-86
2022/03/04 12:36:34;;;;;;;0.30;0.20;;;4.50;73.40;;;;;;5078249;28;20501;-86
2022/03/04 12:39:04;;;;;;;0.30;0.10;;;4.90;71.70;;;;;;5069136;28;20533;-85
2022/03/04 12:41:32;;;;;;;0.30;0.20;;;4.90;71.10;;;;;;5050796;28;20540;-85
2022/03/04 12:44:03;;;;;;;0.93;0.30;;;4.80;69.80;;;;;;5068228;28;20517;-84
2022/03/04 12:46:32;;;;;;;0.30;0.10;;;4.80;69.80;;;;;;5070221;28;20456;-85
2022/03/04 12:49:00;;;;;;;1.07;1.07;;;5.10;71.90;;;;;;5070029;28;20456;-86
2022/03/04 12:51:29;;;;;;;1.43;0.50;;;5.20;72.00;;;;;;5064745;28;20876;-85
2022/03/04 12:53:58;;;;;;;0.30;0.20;;;5.30;69.40;;;;;;5064244;28;20500;-85
2022/03/04 12:56:26;;;;;;;0.40;0.30;;;5.20;67.70;;;;;;5069052;28;20444;-85
2022/03/04 12:58:54;;;;;;;0.40;0.20;;;5.40;68.50;;;;;;5062064;28;20517;-86